createdAt,value
2023-03-14T00:02:16.700Z,18.10
2023-03-14T00:04:44.069Z,18.10
2023-03-14T00:07:14.504Z,18.10
2023-03-14T00:09:41.645Z,18.10
2023-03-14T00:12:09.034Z,18.00
2023-03-14T00:14:35.946Z,18.00
2023-03-14T00:17:03.457Z,17.90
2023-03-14T00:19:30.346Z,17.90
2023-03-14T00:21:57.162Z,17.90
2023-03-14T00:24:23.980Z,17.90
2023-03-14T00:26:51.182Z,17.90
2023-03-14T00:29:18.418Z,17.90
2023-03-14T00:31:45.435Z,17.90
2023-03-14T00:34:12.374Z,17.80
2023-03-14T00:36:39.271Z,17.80
2023-03-14T00:39:06.294Z,17.70
2023-03-14T00:41:33.136Z,17.60
2023-03-14T00:44:00.073Z,17.60
2023-03-14T00:46:26.923Z,17.60
2023-03-14T00:48:53.737Z,17.50
2023-03-14T00:51:20.659Z,17.60
2023-03-14T00:53:47.523Z,17.60
2023-03-14T00:56:15.017Z,17.60
2023-03-14T00:58:42.186Z,17.60
2023-03-14T01:01:10.724Z,17.60
2023-03-14T01:03:37.986Z,17.50
2023-03-14T01:06:26.779Z,17.40
2023-03-14T01:08:54.956Z,17.30
2023-03-14T01:11:26.166Z,17.30
2023-03-14T01:13:54.173Z,17.20
2023-03-14T01:16:22.324Z,17.20
2023-03-14T01:18:50.164Z,17.10
2023-03-14T01:21:21.979Z,17.10
2023-03-14T01:23:50.405Z,17.10
2023-03-14T01:26:24.013Z,17.00
2023-03-14T01:28:52.905Z,16.90
2023-03-14T01:31:20.237Z,16.80
2023-03-14T01:33:47.458Z,16.60
2023-03-14T01:36:15.169Z,16.50
2023-03-14T01:38:43.512Z,16.50
2023-03-14T01:41:19.500Z,16.40
2023-03-14T01:43:47.217Z,16.30
2023-03-14T01:46:37.355Z,16.30
2023-03-14T01:49:13.974Z,16.20
2023-03-14T01:51:43.879Z,16.10
2023-03-14T01:54:20.869Z,16.10
2023-03-14T01:56:57.184Z,16.10
2023-03-14T01:59:24.795Z,16.10
2023-03-14T02:01:53.061Z,16.10
2023-03-14T02:04:22.130Z,16.00
2023-03-14T02:06:53.849Z,16.00
2023-03-14T02:09:22.512Z,16.10
2023-03-14T02:11:53.155Z,16.10
2023-03-14T02:14:30.837Z,16.00
2023-03-14T02:16:58.346Z,16.00
2023-03-14T02:19:48.283Z,16.10
2023-03-14T02:22:16.616Z,16.10
2023-03-14T02:24:55.600Z,16.20
2023-03-14T02:27:23.193Z,16.20
2023-03-14T02:30:05.077Z,16.10
2023-03-14T02:32:34.626Z,16.10
2023-03-14T02:35:12.497Z,16.20
2023-03-14T02:37:53.370Z,16.20
2023-03-14T02:40:20.920Z,16.20
2023-03-14T02:42:47.876Z,16.20
2023-03-14T02:45:14.605Z,16.20
2023-03-14T02:47:48.405Z,16.20
2023-03-14T02:50:19.712Z,16.20
2023-03-14T02:52:46.717Z,16.20
2023-03-14T02:55:13.673Z,16.20
2023-03-14T02:57:40.779Z,16.20
2023-03-14T03:00:09.101Z,16.20
2023-03-14T03:02:36.128Z,16.20
2023-03-14T03:05:02.941Z,16.20
2023-03-14T03:07:29.934Z,16.20
2023-03-14T03:09:56.703Z,16.20
2023-03-14T03:12:23.753Z,16.20
2023-03-14T03:14:50.653Z,16.20
2023-03-14T03:17:17.600Z,16.20
2023-03-14T03:19:44.946Z,16.20
2023-03-14T03:22:12.209Z,16.20
2023-03-14T03:24:39.251Z,16.20
2023-03-14T03:27:06.296Z,16.20
2023-03-14T03:29:33.605Z,16.20
2023-03-14T03:32:00.755Z,16.20
2023-03-14T03:34:28.904Z,16.20
2023-03-14T03:36:59.904Z,16.30
2023-03-14T03:39:26.866Z,16.20
2023-03-14T03:41:53.914Z,16.20
2023-03-14T03:44:20.981Z,16.20
2023-03-14T03:46:47.895Z,16.30
2023-03-14T03:49:16.907Z,16.40
2023-03-14T03:51:44.049Z,16.40
2023-03-14T03:54:10.841Z,16.30
2023-03-14T03:56:37.734Z,16.20
2023-03-14T03:59:04.632Z,16.20
2023-03-14T04:01:31.580Z,16.30
2023-03-14T04:03:58.907Z,16.30
2023-03-14T04:06:26.114Z,16.40
2023-03-14T04:08:55.078Z,16.40
2023-03-14T04:11:22.237Z,16.40
2023-03-14T04:13:48.967Z,16.40
2023-03-14T04:16:20.647Z,16.30
2023-03-14T04:18:48.053Z,16.40
2023-03-14T04:21:15.756Z,16.50
2023-03-14T04:23:42.621Z,16.40
2023-03-14T04:26:09.422Z,16.50
2023-03-14T04:28:40.151Z,16.50
2023-03-14T04:31:15.552Z,16.50
2023-03-14T04:33:44.865Z,16.60
2023-03-14T04:36:12.660Z,16.50
2023-03-14T04:38:39.661Z,16.50
2023-03-14T04:41:07.431Z,16.50
2023-03-14T04:43:34.683Z,16.50
2023-03-14T04:46:02.028Z,16.50
2023-03-14T04:48:30.102Z,16.60
2023-03-14T04:50:57.457Z,16.60
2023-03-14T04:53:24.312Z,16.50
2023-03-14T04:55:52.883Z,16.60
2023-03-14T04:58:21.792Z,16.60
2023-03-14T05:00:49.129Z,16.60
2023-03-14T05:03:17.955Z,16.60
2023-03-14T05:05:45.169Z,16.60
2023-03-14T05:08:12.319Z,16.60
2023-03-14T05:10:39.368Z,16.50
2023-03-14T05:13:06.201Z,16.50
2023-03-14T05:15:34.540Z,16.60
2023-03-14T05:18:01.583Z,16.50
2023-03-14T05:20:28.422Z,16.40
2023-03-14T05:22:55.484Z,16.40
2023-03-14T05:25:22.319Z,16.30
2023-03-14T05:27:49.368Z,16.30
2023-03-14T05:30:16.279Z,16.20
2023-03-14T05:32:43.255Z,16.20
2023-03-14T05:35:10.049Z,16.10
2023-03-14T05:37:37.929Z,16.00
2023-03-14T05:40:07.471Z,16.00
2023-03-14T05:42:34.467Z,16.10
2023-03-14T05:45:01.634Z,16.10
2023-03-14T05:47:29.182Z,16.00
2023-03-14T05:49:56.981Z,16.00
2023-03-14T05:52:24.299Z,16.00
2023-03-14T05:54:51.046Z,16.00
2023-03-14T05:57:18.081Z,15.90
2023-03-14T05:59:44.928Z,15.90
2023-03-14T06:02:11.750Z,15.90
2023-03-14T06:04:40.300Z,15.90
2023-03-14T06:07:07.120Z,15.90
2023-03-14T06:09:33.895Z,15.90
2023-03-14T06:12:00.978Z,15.80
2023-03-14T06:14:27.859Z,15.80
2023-03-14T06:16:55.089Z,15.80
2023-03-14T06:19:22.056Z,15.90
2023-03-14T06:21:48.860Z,15.90
2023-03-14T06:24:15.682Z,15.80
2023-03-14T06:26:42.600Z,15.90
2023-03-14T06:29:10.006Z,15.90
2023-03-14T06:31:37.526Z,15.90
2023-03-14T06:34:06.412Z,15.90
2023-03-14T06:36:33.352Z,16.00
2023-03-14T06:39:00.257Z,15.90
2023-03-14T06:41:27.958Z,15.90
2023-03-14T06:43:56.782Z,15.90
2023-03-14T06:46:23.748Z,15.90
2023-03-14T06:48:51.014Z,15.80
2023-03-14T06:51:18.099Z,15.70
2023-03-14T06:53:45.515Z,15.60
2023-03-14T06:56:12.502Z,15.50
2023-03-14T06:58:39.595Z,15.40
2023-03-14T07:01:06.838Z,15.30
2023-03-14T07:03:33.860Z,15.30
2023-03-14T07:06:00.840Z,15.20
2023-03-14T07:08:28.200Z,15.10
2023-03-14T07:10:57.764Z,15.00
2023-03-14T07:13:24.619Z,15.00
2023-03-14T07:15:51.719Z,14.90
2023-03-14T07:18:18.485Z,14.90
2023-03-14T07:20:46.977Z,14.90
2023-03-14T07:23:13.756Z,14.90
2023-03-14T07:25:40.611Z,14.80
2023-03-14T07:28:07.706Z,14.80
2023-03-14T07:30:34.509Z,14.80
2023-03-14T07:33:01.507Z,14.70
2023-03-14T07:35:28.436Z,14.70
2023-03-14T07:37:55.421Z,14.70
2023-03-14T07:40:22.547Z,14.70
2023-03-14T07:42:50.574Z,14.70
2023-03-14T07:45:18.240Z,14.70
2023-03-14T07:47:45.313Z,14.70
2023-03-14T07:50:12.160Z,14.70
2023-03-14T07:52:39.053Z,14.70
2023-03-14T07:55:06.616Z,14.60
2023-03-14T07:57:35.448Z,14.60
2023-03-14T08:00:02.722Z,14.60
2023-03-14T08:02:29.504Z,14.60
2023-03-14T08:04:56.339Z,14.60
2023-03-14T08:07:23.391Z,14.60
2023-03-14T08:09:51.712Z,14.60
2023-03-14T08:12:18.517Z,14.60
2023-03-14T08:14:45.755Z,14.60
2023-03-14T08:17:12.956Z,14.40
2023-03-14T08:19:39.843Z,14.30
2023-03-14T08:22:06.593Z,14.00
2023-03-14T08:24:33.485Z,13.80
2023-03-14T08:27:01.762Z,13.60
2023-03-14T08:29:29.588Z,13.50
2023-03-14T08:31:56.475Z,13.40
2023-03-14T08:34:23.575Z,13.30
2023-03-14T08:36:51.235Z,13.20
2023-03-14T08:39:18.191Z,13.10
2023-03-14T08:41:45.659Z,13.00
2023-03-14T08:44:12.575Z,12.90
2023-03-14T08:46:39.713Z,12.90
2023-03-14T08:49:06.631Z,12.90
2023-03-14T08:51:33.473Z,12.80
2023-03-14T08:54:00.255Z,12.90
2023-03-14T08:56:27.200Z,12.90
2023-03-14T08:58:53.994Z,12.90
2023-03-14T09:01:21.904Z,12.90
2023-03-14T09:03:49.364Z,12.90
2023-03-14T09:06:18.897Z,13.00
2023-03-14T09:08:46.689Z,13.00
2023-03-14T09:11:13.998Z,13.00
2023-03-14T09:13:41.129Z,12.90
2023-03-14T09:16:09.089Z,13.00
2023-03-14T09:18:36.374Z,13.00
2023-03-14T09:21:03.261Z,13.00
2023-03-14T09:23:30.158Z,13.10
2023-03-14T09:26:00.841Z,13.10
2023-03-14T09:28:30.093Z,13.20
2023-03-14T09:30:56.940Z,13.10
2023-03-14T09:33:24.086Z,13.20
2023-03-14T09:35:51.116Z,13.20
2023-03-14T09:38:18.000Z,13.20
2023-03-14T09:40:44.960Z,13.20
2023-03-14T09:43:15.136Z,13.20
2023-03-14T09:45:44.516Z,13.30
2023-03-14T09:48:24.229Z,13.30
2023-03-14T09:50:58.626Z,13.40
2023-03-14T09:53:29.588Z,13.30
2023-03-14T09:55:58.900Z,13.20
2023-03-14T09:58:26.372Z,13.40
2023-03-14T10:00:59.328Z,13.40
2023-03-14T10:03:35.331Z,13.50
2023-03-14T10:06:03.009Z,13.60
2023-03-14T10:08:30.094Z,13.60
2023-03-14T10:10:57.039Z,13.70
2023-03-14T10:13:28.644Z,13.80
2023-03-14T10:16:05.077Z,13.90
2023-03-14T10:18:34.870Z,13.80
2023-03-14T10:21:19.178Z,13.80
2023-03-14T10:23:49.195Z,13.90
2023-03-14T10:26:19.851Z,13.80
2023-03-14T10:28:52.984Z,13.80
2023-03-14T10:31:25.493Z,13.80
2023-03-14T10:34:00.629Z,13.80
2023-03-14T10:36:32.922Z,13.90
2023-03-14T10:39:24.828Z,13.80
2023-03-14T10:42:14.573Z,13.80
2023-03-14T10:44:43.155Z,13.90
2023-03-14T10:47:19.462Z,14.00
2023-03-14T10:49:46.828Z,14.00
2023-03-14T10:52:31.109Z,14.00
2023-03-14T10:55:10.560Z,14.10
2023-03-14T10:57:41.606Z,14.00
2023-03-14T11:00:23.618Z,13.90
2023-03-14T11:03:13.764Z,13.70
2023-03-14T11:05:54.725Z,13.50
2023-03-14T11:08:43.265Z,13.30
2023-03-14T11:11:23.434Z,13.20
2023-03-14T11:14:27.076Z,13.20
2023-03-14T11:17:13.218Z,13.20
2023-03-14T11:19:45.296Z,13.10
2023-03-14T11:22:19.913Z,13.10
2023-03-14T11:25:24.142Z,13.20
2023-03-14T11:28:48.619Z,13.30
2023-03-14T11:31:45.575Z,13.40
2023-03-14T11:34:23.268Z,13.90
2023-03-14T11:36:58.296Z,14.30
2023-03-14T11:39:29.044Z,14.70
2023-03-14T11:42:00.902Z,15.10
2023-03-14T11:44:50.089Z,15.40
2023-03-14T11:47:19.751Z,15.70
2023-03-14T11:49:57.651Z,15.90
2023-03-14T11:52:38.616Z,16.00
2023-03-14T11:55:19.471Z,16.10
2023-03-14T11:57:48.986Z,16.10
2023-03-14T12:00:18.684Z,16.00
2023-03-14T12:03:03.401Z,16.00
2023-03-14T12:06:06.602Z,15.90
2023-03-14T12:08:52.493Z,16.10
2023-03-14T12:11:59.384Z,16.30
2023-03-14T12:14:35.726Z,16.50
2023-03-14T12:17:27.307Z,16.80
2023-03-14T12:20:17.083Z,17.20
2023-03-14T12:22:50.286Z,17.60
2023-03-14T12:25:23.876Z,17.70
2023-03-14T12:27:57.145Z,17.90
2023-03-14T12:30:41.267Z,18.20
2023-03-14T12:33:13.488Z,18.40
2023-03-14T12:35:44.685Z,18.50
2023-03-14T12:38:36.708Z,18.40
2023-03-14T12:41:22.051Z,18.20
2023-03-14T12:43:49.054Z,18.10
2023-03-14T12:46:27.938Z,18.10
2023-03-14T12:49:14.084Z,18.30
2023-03-14T12:51:45.048Z,18.60
2023-03-14T12:54:22.638Z,18.90
2023-03-14T12:57:11.667Z,19.20
2023-03-14T12:59:48.993Z,19.60
2023-03-14T13:02:29.622Z,19.90
2023-03-14T13:05:17.954Z,20.10
2023-03-14T13:07:47.747Z,20.20
2023-03-14T13:10:28.893Z,20.10
2023-03-14T13:13:27.091Z,20.00
2023-03-14T13:16:01.260Z,20.00
2023-03-14T13:18:46.663Z,19.90
2023-03-14T13:21:26.270Z,20.00
2023-03-14T13:24:07.033Z,20.20
2023-03-14T13:26:47.780Z,20.50
2023-03-14T13:29:21.778Z,20.70
2023-03-14T13:31:51.463Z,20.80
2023-03-14T13:34:20.089Z,20.80
2023-03-14T13:36:50.424Z,20.90
2023-03-14T13:39:25.766Z,20.90
2023-03-14T13:42:00.227Z,21.00
2023-03-14T13:44:38.294Z,21.20
2023-03-14T13:47:10.976Z,21.50
2023-03-14T13:49:39.387Z,21.60
2023-03-14T13:52:26.174Z,21.70
2023-03-14T13:54:57.729Z,21.70
2023-03-14T13:57:26.005Z,21.80
2023-03-14T14:00:11.126Z,21.60
2023-03-14T14:02:39.904Z,21.30
2023-03-14T14:05:11.605Z,21.20
2023-03-14T14:07:39.047Z,21.10
2023-03-14T14:10:07.354Z,20.70
2023-03-14T14:12:40.332Z,20.60
2023-03-14T14:15:13.138Z,20.30
2023-03-14T14:18:00.380Z,19.90
2023-03-14T14:20:36.083Z,19.60
2023-03-14T14:23:15.230Z,19.10
2023-03-14T14:25:44.264Z,18.60
2023-03-14T14:28:32.311Z,18.30
2023-03-14T14:31:03.427Z,18.10
2023-03-14T14:33:30.796Z,17.60
2023-03-14T14:36:01.228Z,17.50
2023-03-14T14:38:31.149Z,17.40
2023-03-14T14:41:04.689Z,17.30
2023-03-14T14:43:37.526Z,17.10
2023-03-14T14:46:09.105Z,17.00
2023-03-14T14:48:38.937Z,16.70
2023-03-14T14:51:08.494Z,16.50
2023-03-14T14:53:43.907Z,16.20
2023-03-14T14:56:26.995Z,16.10
2023-03-14T14:59:00.871Z,16.10
2023-03-14T15:01:37.127Z,16.00
2023-03-14T15:04:12.021Z,15.90
2023-03-14T15:06:39.123Z,15.90
2023-03-14T15:09:10.217Z,15.80
2023-03-14T15:11:37.587Z,15.80
2023-03-14T15:14:05.135Z,15.70
2023-03-14T15:16:33.147Z,15.60
2023-03-14T15:19:17.915Z,15.60
2023-03-14T15:21:51.341Z,15.50
2023-03-14T15:24:19.481Z,15.40
2023-03-14T15:26:46.784Z,15.40
2023-03-14T15:29:13.986Z,15.40
2023-03-14T15:31:41.954Z,15.50
2023-03-14T15:34:10.178Z,15.50
2023-03-14T15:36:38.255Z,15.60
2023-03-14T15:39:07.583Z,15.60
2023-03-14T15:41:34.859Z,15.60
2023-03-14T15:44:02.818Z,15.70
2023-03-14T15:46:31.323Z,15.70
2023-03-14T15:48:58.353Z,15.50
2023-03-14T15:51:25.470Z,15.40
2023-03-14T15:53:52.718Z,15.30
2023-03-14T15:56:21.252Z,15.30
2023-03-14T15:58:51.365Z,15.20
2023-03-14T16:01:19.995Z,15.20
2023-03-14T16:03:47.492Z,15.10
2023-03-14T16:06:18.076Z,15.20
2023-03-14T16:08:44.909Z,15.20
2023-03-14T16:11:15.481Z,15.20
2023-03-14T16:13:42.594Z,15.10
2023-03-14T16:16:10.600Z,15.10
2023-03-14T16:18:38.993Z,15.20
2023-03-14T16:21:09.470Z,15.20
2023-03-14T16:23:38.794Z,15.20
2023-03-14T16:26:08.504Z,15.20
2023-03-14T16:28:35.873Z,15.00
2023-03-14T16:31:08.892Z,14.90
2023-03-14T16:33:38.224Z,14.80
2023-03-14T16:36:08.811Z,14.70
2023-03-14T16:38:37.329Z,14.60
2023-03-14T16:41:10.076Z,14.40
2023-03-14T16:43:39.749Z,14.40
2023-03-14T16:46:10.165Z,14.30
2023-03-14T16:48:37.228Z,14.20
2023-03-14T16:51:04.307Z,14.20
2023-03-14T16:53:31.454Z,14.10
2023-03-14T16:55:59.985Z,14.10
2023-03-14T16:58:27.552Z,14.00
2023-03-14T17:00:54.611Z,14.00
2023-03-14T17:03:22.198Z,14.20
2023-03-14T17:05:50.722Z,14.20
2023-03-14T17:08:19.614Z,14.20
2023-03-14T17:10:46.944Z,14.30
2023-03-14T17:13:14.082Z,14.40
2023-03-14T17:15:47.067Z,14.50
2023-03-14T17:18:14.430Z,14.60
2023-03-14T17:20:41.371Z,14.60
2023-03-14T17:23:08.984Z,14.60
2023-03-14T17:25:37.750Z,14.50
2023-03-14T17:28:06.861Z,14.30
2023-03-14T17:30:34.368Z,14.30
2023-03-14T17:33:01.244Z,14.10
2023-03-14T17:35:28.227Z,13.90
2023-03-14T17:37:55.304Z,13.80
2023-03-14T17:40:22.264Z,13.70
2023-03-14T17:42:52.067Z,13.50
2023-03-14T17:45:19.115Z,13.40
2023-03-14T17:47:46.076Z,13.30
2023-03-14T17:50:13.985Z,13.20
2023-03-14T17:52:41.585Z,13.10
2023-03-14T17:55:12.172Z,13.00
2023-03-14T17:57:40.269Z,12.90
2023-03-14T18:00:09.954Z,12.80
2023-03-14T18:02:37.449Z,12.80
2023-03-14T18:05:04.812Z,12.70
2023-03-14T18:07:35.447Z,12.60
2023-03-14T18:10:02.767Z,12.50
2023-03-14T18:12:29.499Z,12.40
2023-03-14T18:14:56.741Z,12.30
2023-03-14T18:17:23.738Z,12.30
2023-03-14T18:19:50.893Z,12.20
2023-03-14T18:22:17.783Z,12.20
2023-03-14T18:24:45.808Z,12.10
2023-03-14T18:27:14.515Z,12.00
2023-03-14T18:29:44.509Z,12.00
2023-03-14T18:32:11.505Z,12.00
2023-03-14T18:34:38.400Z,11.90
2023-03-14T18:37:05.443Z,11.90
2023-03-14T18:39:32.498Z,11.80
2023-03-14T18:41:59.343Z,11.80
2023-03-14T18:44:26.599Z,11.70
2023-03-14T18:46:54.095Z,11.70
2023-03-14T18:49:22.634Z,11.70
2023-03-14T18:51:51.106Z,11.60
2023-03-14T18:54:17.973Z,11.60
2023-03-14T18:56:44.760Z,11.60
2023-03-14T18:59:12.108Z,11.50
2023-03-14T19:01:39.264Z,11.50
2023-03-14T19:04:08.843Z,11.40
2023-03-14T19:06:37.549Z,11.30
2023-03-14T19:09:09.400Z,11.20
2023-03-14T19:11:36.965Z,11.10
2023-03-14T19:14:04.257Z,11.10
2023-03-14T19:16:32.757Z,11.10
2023-03-14T19:18:59.689Z,11.10
2023-03-14T19:21:32.830Z,11.00
2023-03-14T19:24:01.472Z,11.00
2023-03-14T19:26:32.679Z,11.00
2023-03-14T19:28:59.931Z,11.00
2023-03-14T19:31:27.625Z,11.00
2023-03-14T19:33:55.029Z,10.90
2023-03-14T19:36:28.904Z,10.90
2023-03-14T19:38:56.320Z,10.90
2023-03-14T19:41:26.059Z,10.90
2023-03-14T19:43:54.585Z,10.90
2023-03-14T19:46:22.501Z,10.90
2023-03-14T19:48:50.269Z,10.90
2023-03-14T19:51:17.625Z,10.90
2023-03-14T19:53:44.418Z,10.90
2023-03-14T19:56:12.586Z,10.90
2023-03-14T19:58:40.585Z,10.90
2023-03-14T20:01:08.759Z,10.90
2023-03-14T20:03:36.758Z,10.80
2023-03-14T20:06:09.276Z,10.90
2023-03-14T20:08:36.057Z,10.80
2023-03-14T20:11:08.725Z,10.90
2023-03-14T20:13:35.491Z,10.80
2023-03-14T20:16:07.465Z,10.70
2023-03-14T20:18:34.480Z,10.70
2023-03-14T20:21:05.242Z,10.70
2023-03-14T20:23:32.050Z,10.70
2023-03-14T20:25:59.789Z,10.70
2023-03-14T20:28:26.752Z,10.80
2023-03-14T20:30:53.658Z,10.80
2023-03-14T20:33:22.780Z,10.80
2023-03-14T20:36:00.691Z,10.90
2023-03-14T20:38:31.424Z,10.90
2023-03-14T20:40:59.519Z,10.90
2023-03-14T20:43:26.993Z,10.90
2023-03-14T20:45:59.498Z,11.00
2023-03-14T20:48:27.816Z,11.10
2023-03-14T20:50:55.564Z,11.10
2023-03-14T20:53:23.158Z,11.10
2023-03-14T20:55:51.710Z,11.00
2023-03-14T20:58:19.171Z,11.00
2023-03-14T21:00:48.515Z,10.90
2023-03-14T21:03:16.822Z,11.00
2023-03-14T21:05:46.813Z,10.90
2023-03-14T21:08:21.084Z,10.90
2023-03-14T21:10:49.210Z,10.90
2023-03-14T21:13:16.501Z,10.90
2023-03-14T21:15:43.980Z,10.90
2023-03-14T21:18:11.754Z,10.80
2023-03-14T21:20:40.775Z,10.80
2023-03-14T21:23:07.768Z,10.80
2023-03-14T21:25:36.789Z,10.80
2023-03-14T21:28:04.340Z,10.80
2023-03-14T21:30:34.727Z,10.80
2023-03-14T21:33:02.518Z,10.90
2023-03-14T21:35:29.742Z,10.80
2023-03-14T21:37:57.070Z,10.80
2023-03-14T21:40:24.934Z,10.80
2023-03-14T21:42:55.765Z,10.80
2023-03-14T21:45:27.306Z,10.80
2023-03-14T21:47:55.132Z,10.80
2023-03-14T21:50:23.816Z,10.80
2023-03-14T21:52:52.317Z,10.90
2023-03-14T21:55:19.358Z,10.90
2023-03-14T21:57:49.442Z,10.80
2023-03-14T22:00:20.114Z,10.80
2023-03-14T22:03:03.200Z,10.80
2023-03-14T22:05:35.397Z,10.80
2023-03-14T22:08:02.249Z,10.90
2023-03-14T22:10:29.022Z,10.90
2023-03-14T22:12:57.738Z,10.90
2023-03-14T22:15:24.451Z,10.90
2023-03-14T22:17:51.561Z,10.90
2023-03-14T22:20:18.442Z,11.00
2023-03-14T22:22:45.359Z,11.00
2023-03-14T22:25:12.125Z,11.00
2023-03-14T22:27:39.145Z,11.00
2023-03-14T22:30:06.337Z,11.10
2023-03-14T22:32:36.562Z,11.10
2023-03-14T22:35:03.654Z,11.10
2023-03-14T22:37:32.652Z,11.00
2023-03-14T22:40:00.710Z,10.90
2023-03-14T22:42:27.449Z,10.80
2023-03-14T22:44:54.799Z,10.70
2023-03-14T22:47:22.016Z,10.60
2023-03-14T22:49:48.745Z,10.50
2023-03-14T22:52:15.797Z,10.40
2023-03-14T22:54:44.022Z,10.30
2023-03-14T22:57:10.923Z,10.20
2023-03-14T22:59:37.785Z,10.20
2023-03-14T23:02:04.803Z,10.20
2023-03-14T23:04:31.701Z,10.20
2023-03-14T23:06:58.690Z,10.20
2023-03-14T23:09:25.438Z,10.20
2023-03-14T23:11:52.221Z,10.20
2023-03-14T23:14:20.291Z,10.20
2023-03-14T23:16:47.446Z,10.10
2023-03-14T23:19:14.909Z,10.10
2023-03-14T23:21:42.415Z,10.10
2023-03-14T23:24:10.134Z,10.00
2023-03-14T23:26:38.354Z,9.90
2023-03-14T23:29:05.688Z,9.80
2023-03-14T23:31:33.661Z,9.60
2023-03-14T23:34:01.920Z,9.40
2023-03-14T23:36:29.749Z,9.30
2023-03-14T23:38:56.768Z,9.20
2023-03-14T23:41:24.593Z,9.10
2023-03-14T23:43:51.531Z,9.00
2023-03-14T23:46:18.350Z,8.90
2023-03-14T23:48:46.987Z,8.90
2023-03-14T23:51:14.318Z,8.80
2023-03-14T23:53:41.358Z,8.70
2023-03-14T23:56:09.488Z,8.70
2023-03-14T23:58:36.680Z,8.70
